KTOI/TOI METAR and TAF weather

Enter ICAO airport designator
Station Type Date Time Source
KTOI METAR 2021/07/29 02:53 UTC NOAA

KTOI 290253Z AUTO 21003KT 10SM VCTS CLR 26/22 A3004 RMK AO2 LTG DSNT NE SLP168 T02610222 53016


Station Type Date Time Source
KTOI Decoded METAR 2021/07/29 02:53 UTC NOAA

TROY MUNICIPAL AIRPORT, AL, United States (KTOI) 31-52N 086-01W 118M
Jul 28, 2021 - 10:53 PM EDT / 2021.07.29 0253 UTC
Wind: from the SSW (210 degrees) at 3 MPH (3 KT):0
Visibility: 10 mile(s):0
Sky conditions: clear
Weather: thunder in the vicinity; Lightning observed
Temperature: 79.0 F (26.1 C)
Dew Point: 72.0 F (22.2 C)
Relative Humidity: 79%
Pressure (altimeter): 30.04 in. Hg (1017 hPa)
Pressure tendency: 0.05 inches (1.6 hPa) higher than three hours ago
ob: KTOI 290253Z AUTO 21003KT 10SM VCTS CLR 26/22 A3004 RMK AO2 LTG DSNT NE SLP168 T02610222 53016
cycle: 3

Station Type Date Time Source
KTOI TAF 2021/07/29 03:58 UTC NOAA

TAF
AMD KTOI 290257Z 2903/2924 36004KT P6SM VCTS SCT040CB
TEMPO 2903/2905 4SM TSRA BKN045CB
FM290500 00000KT P6SM SCT250
FM290800 00000KT 4SM BR FEW250
FM291300 01006KT P6SM SCT050

Example: see airport list